Time;durP1;ratioP1;P1;durP2;ratioP2;P2;SDS_P1;SDS_P2;PMS_P1;PMS_P2;Temp;Humidity;BMP_temperature;BMP_pressure;BME280_temperature;BME280_humidity;BME280_pressure;Samples;Min_cycle;Max_cycle;Signal;HPM_P1;HPM_P2
2022/07/17 00:01:39;;;;;;;5.85;1.73;;;16.40;59.40;;;;;;4886140;29;20057;-67
2022/07/17 00:04:06;;;;;;;4.65;1.50;;;16.40;59.50;;;;;;4887351;29;20438;-67
2022/07/17 00:06:33;;;;;;;3.72;1.48;;;16.40;59.40;;;;;;4894300;29;20139;-66
2022/07/17 00:09:00;;;;;;;3.63;1.30;;;16.40;59.40;;;;;;4904326;29;20052;-66
2022/07/17 00:11:28;;;;;;;4.60;1.45;;;16.30;59.70;;;;;;4893492;29;20056;-64
2022/07/17 00:13:55;;;;;;;3.13;1.42;;;16.20;60.00;;;;;;4892904;29;20048;-64
2022/07/17 00:16:23;;;;;;;6.15;1.38;;;16.20;60.10;;;;;;4869231;29;20044;-65
2022/07/17 00:18:50;;;;;;;3.42;1.20;;;16.10;60.30;;;;;;4887517;29;20055;-66
2022/07/17 00:21:17;;;;;;;5.05;1.42;;;16.10;60.60;;;;;;4886796;29;20056;-65
2022/07/17 00:23:44;;;;;;;2.13;0.70;;;16.10;60.60;;;;;;4884025;29;20073;-65
2022/07/17 00:26:11;;;;;;;2.08;1.02;;;16.00;60.70;;;;;;4892820;29;20059;-65
2022/07/17 00:28:38;;;;;;;3.38;0.85;;;16.00;60.90;;;;;;4876558;29;20112;-62
2022/07/17 00:31:05;;;;;;;2.90;0.93;;;16.00;60.90;;;;;;4888984;29;20051;-65
2022/07/17 00:33:33;;;;;;;2.90;0.80;;;15.90;61.10;;;;;;4883906;29;20057;-65
2022/07/17 00:36:00;;;;;;;4.72;0.98;;;15.90;61.40;;;;;;4885717;29;20124;-66
2022/07/17 00:38:28;;;;;;;6.70;1.10;;;15.80;61.60;;;;;;4889433;29;20055;-68
2022/07/17 00:40:56;;;;;;;6.55;2.20;;;15.80;61.60;;;;;;4887285;29;20048;-66
2022/07/17 00:43:23;;;;;;;19.85;6.18;;;15.80;61.60;;;;;;4885638;29;20192;-66
2022/07/17 00:46:02;;;;;;;22.85;7.93;;;15.70;61.70;;;;;;4886595;29;20049;-65
2022/07/17 00:48:29;;;;;;;19.63;6.32;;;15.70;61.80;;;;;;4881158;29;20060;-65
2022/07/17 00:50:58;;;;;;;19.25;6.10;;;15.70;61.90;;;;;;4887442;29;20048;-66
2022/07/17 00:53:25;;;;;;;12.70;5.40;;;15.60;61.90;;;;;;4882216;29;20063;-67
2022/07/17 00:55:52;;;;;;;16.73;5.70;;;15.60;62.00;;;;;;4888137;29;20569;-67
2022/07/17 00:58:21;;;;;;;8.40;4.15;;;15.60;62.10;;;;;;4881141;29;20098;-67
2022/07/17 01:00:49;;;;;;;14.60;4.18;;;15.50;62.10;;;;;;4887512;29;20053;-66
2022/07/17 01:03:17;;;;;;;13.25;3.80;;;15.50;62.30;;;;;;4883912;29;20053;-65
2022/07/17 01:05:45;;;;;;;6.45;2.35;;;15.40;62.40;;;;;;4878083;29;20041;-66
2022/07/17 01:08:14;;;;;;;4.35;1.83;;;15.40;62.50;;;;;;4877363;29;20052;-65
2022/07/17 01:10:42;;;;;;;6.07;1.80;;;15.40;62.70;;;;;;4885902;29;20430;-64
2022/07/17 01:13:09;;;;;;;3.90;1.45;;;15.40;62.90;;;;;;4890440;29;20489;-65
2022/07/17 01:15:38;;;;;;;3.45;1.35;;;15.30;62.80;;;;;;4881943;29;20469;-66
2022/07/17 01:18:07;;;;;;;2.90;1.23;;;15.30;63.00;;;;;;4888957;29;20052;-65
2022/07/17 01:20:35;;;;;;;3.58;1.00;;;15.20;63.10;;;;;;4884720;29;20172;-64
2022/07/17 01:23:04;;;;;;;3.78;1.20;;;15.20;63.30;;;;;;4886752;29;20399;-66
2022/07/17 01:25:32;;;;;;;4.65;1.05;;;15.10;63.40;;;;;;4890811;29;20067;-64
2022/07/17 01:27:59;;;;;;;3.05;0.90;;;15.10;63.40;;;;;;4870478;29;20053;-65
2022/07/17 01:30:26;;;;;;;3.42;0.90;;;15.00;63.30;;;;;;4888748;29;20056;-66
2022/07/17 01:32:53;;;;;;;2.33;0.82;;;15.10;63.40;;;;;;4870983;29;20451;-63
2022/07/17 01:35:20;;;;;;;1.52;0.85;;;15.00;63.40;;;;;;4885890;29;20513;-64
2022/07/17 01:37:48;;;;;;;3.10;1.17;;;15.00;63.40;;;;;;4878950;29;20053;-67
2022/07/17 01:40:17;;;;;;;3.10;1.10;;;15.00;63.50;;;;;;4889188;29;20049;-65
2022/07/17 01:42:46;;;;;;;3.70;1.10;;;14.90;63.60;;;;;;4885221;29;20772;-63
2022/07/17 01:45:15;;;;;;;2.73;1.07;;;14.90;63.70;;;;;;4881264;29;20052;-65
2022/07/17 01:47:42;;;;;;;3.08;1.10;;;14.90;63.70;;;;;;4881710;29;20056;-64
2022/07/17 01:50:11;;;;;;;3.10;1.05;;;14.90;63.50;;;;;;4892070;29;20052;-65
2022/07/17 01:52:40;;;;;;;3.95;0.77;;;14.80;63.50;;;;;;4875882;29;20513;-65
2022/07/17 01:55:09;;;;;;;5.32;1.50;;;14.80;63.60;;;;;;4883559;29;20091;-65
2022/07/17 01:57:37;;;;;;;5.13;1.02;;;14.80;63.60;;;;;;4882710;29;20056;-65
2022/07/17 02:00:06;;;;;;;1.95;0.80;;;14.70;63.90;;;;;;4887633;29;20067;-64
2022/07/17 02:02:34;;;;;;;3.75;1.08;;;14.60;64.10;;;;;;4884817;29;20048;-64
2022/07/17 02:05:02;;;;;;;5.07;1.20;;;14.60;64.20;;;;;;4885930;29;20048;-65
2022/07/17 02:07:29;;;;;;;1.75;0.90;;;14.60;64.20;;;;;;4880329;29;20063;-66
2022/07/17 02:09:55;;;;;;;3.38;0.93;;;14.60;64.10;;;;;;4892762;29;20052;-63
2022/07/17 02:12:22;;;;;;;3.28;1.17;;;14.60;64.10;;;;;;4890914;29;20103;-63
2022/07/17 02:14:51;;;;;;;1.55;0.80;;;14.60;64.10;;;;;;4885519;29;20053;-65
2022/07/17 02:17:18;;;;;;;2.42;0.73;;;14.60;64.00;;;;;;4883485;29;20055;-65
2022/07/17 02:19:44;;;;;;;1.73;0.73;;;14.60;64.00;;;;;;4889532;29;20084;-65
2022/07/17 02:22:11;;;;;;;3.33;0.80;;;14.50;64.00;;;;;;4887966;29;20391;-65
2022/07/17 02:24:38;;;;;;;2.95;0.77;;;14.50;64.00;;;;;;4887435;29;20055;-66
2022/07/17 02:27:05;;;;;;;2.47;0.70;;;14.50;64.20;;;;;;4885936;29;20379;-66
2022/07/17 02:29:32;;;;;;;2.40;0.88;;;14.40;64.20;;;;;;4889984;29;20052;-65
2022/07/17 02:32:00;;;;;;;3.53;0.70;;;14.40;64.20;;;;;;4877498;29;20047;-66
2022/07/17 02:34:27;;;;;;;1.70;0.70;;;14.40;64.20;;;;;;4877471;29;20110;-64
2022/07/17 02:36:54;;;;;;;1.25;0.63;;;14.40;64.20;;;;;;4885127;29;20431;-64
2022/07/17 02:39:21;;;;;;;2.80;0.73;;;14.30;64.30;;;;;;4885609;29;20053;-63
2022/07/17 02:41:48;;;;;;;2.65;0.70;;;14.30;64.40;;;;;;4884680;29;20127;-65
2022/07/17 02:44:15;;;;;;;2.72;0.77;;;14.20;64.50;;;;;;4883581;29;20053;-67
2022/07/17 02:46:41;;;;;;;1.98;0.47;;;14.20;64.60;;;;;;4891953;29;20045;-64
2022/07/17 02:49:10;;;;;;;2.22;0.65;;;14.20;64.60;;;;;;4885012;29;20063;-66
2022/07/17 02:51:37;;;;;;;1.90;0.75;;;14.20;64.60;;;;;;4879045;29;20053;-65
2022/07/17 02:54:04;;;;;;;1.35;0.50;;;14.10;64.90;;;;;;4886003;29;20061;-63
2022/07/17 02:56:30;;;;;;;4.95;1.00;;;14.10;65.00;;;;;;4890951;29;20056;-65
2022/07/17 02:58:57;;;;;;;4.68;0.80;;;14.10;65.20;;;;;;4883936;29;20049;-63
2022/07/17 03:01:24;;;;;;;2.65;1.13;;;14.00;65.40;;;;;;4888544;29;20056;-64
2022/07/17 03:03:51;;;;;;;2.20;1.42;;;14.10;65.10;;;;;;4901215;29;20466;-68
2022/07/17 03:06:19;;;;;;;6.65;1.42;;;14.00;64.80;;;;;;4894417;29;20048;-66
2022/07/17 03:08:46;;;;;;;3.38;1.17;;;14.00;65.00;;;;;;4889459;29;20056;-63
2022/07/17 03:11:13;;;;;;;5.43;1.00;;;13.90;65.10;;;;;;4886726;29;20051;-64
2022/07/17 03:13:40;;;;;;;1.85;0.80;;;13.90;65.10;;;;;;4890617;29;20045;-64
2022/07/17 03:16:07;;;;;;;7.90;1.33;;;13.90;65.30;;;;;;4888166;29;20067;-63
2022/07/17 03:18:34;;;;;;;2.55;1.00;;;13.80;65.50;;;;;;4885766;29;20049;-66
2022/07/17 03:21:01;;;;;;;3.47;0.93;;;13.80;65.40;;;;;;4885968;29;20133;-66
2022/07/17 03:23:30;;;;;;;2.85;0.90;;;13.80;65.30;;;;;;4886135;29;20063;-64
2022/07/17 03:25:57;;;;;;;4.87;1.07;;;13.90;65.20;;;;;;4892278;29;20060;-66
2022/07/17 03:28:24;;;;;;;4.45;1.08;;;14.10;65.50;;;;;;4887753;29;20072;-65
2022/07/17 03:30:51;;;;;;;2.47;0.80;;;14.00;65.30;;;;;;4892375;29;20063;-65
2022/07/17 03:33:18;;;;;;;1.83;0.73;;;14.00;65.80;;;;;;4902536;29;20052;-65
2022/07/17 03:35:45;;;;;;;2.55;0.80;;;13.90;65.50;;;;;;4889573;29;20059;-64
2022/07/17 03:38:12;;;;;;;4.43;0.90;;;13.90;65.60;;;;;;4895857;29;20047;-64
2022/07/17 03:40:40;;;;;;;4.35;1.00;;;13.80;65.70;;;;;;4897541;29;20056;-64
2022/07/17 03:43:07;;;;;;;3.42;1.20;;;13.70;65.80;;;;;;4892891;29;20060;-66
2022/07/17 03:45:34;;;;;;;1.63;0.75;;;13.70;65.90;;;;;;4885202;29;20057;-64
2022/07/17 03:48:01;;;;;;;2.78;1.13;;;13.70;66.00;;;;;;4900366;29;20049;-66
2022/07/17 03:50:28;;;;;;;3.10;0.77;;;13.60;66.20;;;;;;4875879;29;20045;-65
2022/07/17 03:52:55;;;;;;;6.18;0.98;;;13.60;66.40;;;;;;4892523;29;20491;-63
2022/07/17 03:55:22;;;;;;;2.83;0.80;;;13.60;66.30;;;;;;4888328;29;20057;-65
2022/07/17 03:57:50;;;;;;;1.27;0.68;;;13.60;66.30;;;;;;4898591;29;20063;-63
2022/07/17 04:00:18;;;;;;;4.13;0.50;;;13.60;66.30;;;;;;4889192;29;20510;-64
2022/07/17 04:02:45;;;;;;;1.08;0.60;;;13.60;66.40;;;;;;4888670;29;20702;-63
2022/07/17 04:05:12;;;;;;;2.13;0.85;;;13.50;66.50;;;;;;4904521;29;20064;-62
2022/07/17 04:07:40;;;;;;;3.70;0.73;;;13.50;66.50;;;;;;4890478;29;20056;-64
2022/07/17 04:10:09;;;;;;;2.78;0.60;;;13.50;66.40;;;;;;4897615;29;20049;-63
2022/07/17 04:12:36;;;;;;;4.43;0.90;;;13.50;66.30;;;;;;4902947;29;20143;-64
2022/07/17 04:15:06;;;;;;;1.80;0.60;;;13.50;65.90;;;;;;4881466;29;20045;-64
2022/07/17 04:17:33;;;;;;;2.03;0.63;;;13.60;65.90;;;;;;4894628;29;20062;-64
2022/07/17 04:20:00;;;;;;;3.08;0.90;;;13.60;65.70;;;;;;4890997;29;20066;-63
2022/07/17 04:22:28;;;;;;;1.80;0.80;;;13.60;65.80;;;;;;4892500;29;20527;-64
2022/07/17 04:24:55;;;;;;;2.13;0.68;;;13.60;65.70;;;;;;4890791;29;20053;-63
2022/07/17 04:27:22;;;;;;;2.92;0.85;;;13.70;65.60;;;;;;4892226;29;20057;-64
2022/07/17 04:29:49;;;;;;;0.98;0.55;;;13.60;65.30;;;;;;4900344;29;20063;-63
2022/07/17 04:32:17;;;;;;;2.08;0.75;;;13.60;65.60;;;;;;4884922;29;20499;-64
2022/07/17 04:34:44;;;;;;;3.40;1.02;;;13.60;65.50;;;;;;4897517;29;20049;-65
2022/07/17 04:37:11;;;;;;;2.63;0.70;;;13.60;65.30;;;;;;4887486;29;20391;-65
2022/07/17 04:39:38;;;;;;;3.75;0.60;;;13.60;65.40;;;;;;4893489;29;20396;-67
2022/07/17 04:42:04;;;;;;;1.13;0.45;;;13.70;65.40;;;;;;4893888;29;20075;-65
2022/07/17 04:44:31;;;;;;;3.08;0.52;;;13.60;65.60;;;;;;4901741;29;20078;-65
2022/07/17 04:46:58;;;;;;;3.33;0.77;;;13.60;65.80;;;;;;4889018;29;20052;-64
2022/07/17 04:49:26;;;;;;;2.67;0.77;;;13.60;65.80;;;;;;4888630;29;20491;-65
2022/07/17 04:51:53;;;;;;;2.25;0.80;;;13.70;65.60;;;;;;4902287;29;20048;-63
2022/07/17 04:54:20;;;;;;;2.60;0.80;;;13.60;65.60;;;;;;4888209;29;20082;-63
2022/07/17 04:56:47;;;;;;;1.13;0.55;;;13.70;65.40;;;;;;4889804;29;20056;-65
2022/07/17 04:59:14;;;;;;;3.63;0.90;;;13.70;65.50;;;;;;4893487;29;20380;-65
2022/07/17 05:01:41;;;;;;;3.28;0.80;;;13.70;65.40;;;;;;4892097;29;20056;-64
2022/07/17 05:04:08;;;;;;;3.10;0.50;;;13.70;65.50;;;;;;4886596;29;20131;-64
2022/07/17 05:06:36;;;;;;;1.80;0.60;;;13.70;65.50;;;;;;4885845;29;20053;-64
2022/07/17 05:09:03;;;;;;;2.58;0.73;;;13.70;65.50;;;;;;4884624;29;20055;-65
2022/07/17 05:11:30;;;;;;;3.38;0.70;;;13.70;65.60;;;;;;4887552;29;20047;-62
2022/07/17 05:13:57;;;;;;;2.45;0.50;;;13.70;65.60;;;;;;4884739;29;20063;-62
2022/07/17 05:16:24;;;;;;;1.63;0.70;;;13.70;65.70;;;;;;4896551;29;20045;-64
2022/07/17 05:18:51;;;;;;;2.10;0.90;;;13.70;65.70;;;;;;4888818;29;20054;-63
2022/07/17 05:21:19;;;;;;;2.05;0.70;;;13.80;65.60;;;;;;4882585;29;20060;-64
2022/07/17 05:23:47;;;;;;;2.83;0.63;;;13.90;65.30;;;;;;4891205;29;20108;-64
2022/07/17 05:26:14;;;;;;;0.88;0.50;;;13.90;65.00;;;;;;4899941;29;20052;-63
2022/07/17 05:28:41;;;;;;;1.52;0.70;;;13.90;65.10;;;;;;4888896;29;20112;-64
2022/07/17 05:31:08;;;;;;;3.78;0.77;;;14.00;64.90;;;;;;4889511;29;20112;-63
2022/07/17 05:33:35;;;;;;;2.70;0.65;;;14.10;64.80;;;;;;4894248;29;20090;-62
2022/07/17 05:36:03;;;;;;;2.30;0.57;;;14.10;65.00;;;;;;4898183;29;20703;-62
2022/07/17 05:38:30;;;;;;;2.63;0.70;;;14.10;64.90;;;;;;4891907;29;20052;-62
2022/07/17 05:40:58;;;;;;;1.48;0.70;;;14.10;64.90;;;;;;4887294;29;20514;-63
2022/07/17 05:43:25;;;;;;;1.15;0.50;;;14.20;64.90;;;;;;4886870;29;20438;-64
2022/07/17 05:45:54;;;;;;;2.08;0.55;;;14.20;64.90;;;;;;4894583;29;20052;-64
2022/07/17 05:48:21;;;;;;;3.28;0.60;;;14.20;65.00;;;;;;4893936;29;20045;-64
2022/07/17 05:50:48;;;;;;;1.65;0.70;;;14.20;65.10;;;;;;4897242;29;20051;-63
2022/07/17 05:53:15;;;;;;;3.13;0.95;;;14.30;64.80;;;;;;4891904;29;20140;-65
2022/07/17 05:55:42;;;;;;;1.65;0.50;;;14.40;65.00;;;;;;4882217;29;20403;-64
2022/07/17 05:58:10;;;;;;;1.95;0.95;;;14.40;65.10;;;;;;4888970;29;20488;-64
2022/07/17 06:00:38;;;;;;;2.30;0.70;;;14.40;65.20;;;;;;4888213;29;20060;-64
2022/07/17 06:03:05;;;;;;;1.75;0.65;;;14.50;65.30;;;;;;4885791;29;20517;-64
2022/07/17 06:05:32;;;;;;;1.65;0.65;;;14.50;65.10;;;;;;4884637;29;20049;-64
2022/07/17 06:07:59;;;;;;;3.03;0.77;;;14.60;65.10;;;;;;4893600;29;20072;-63
2022/07/17 06:10:28;;;;;;;5.32;0.60;;;14.60;64.90;;;;;;4894175;29;20057;-63
2022/07/17 06:12:56;;;;;;;2.65;0.82;;;14.70;64.70;;;;;;4896678;29;20048;-65
2022/07/17 06:15:24;;;;;;;1.77;0.60;;;14.70;64.60;;;;;;4893505;29;20041;-65
2022/07/17 06:17:51;;;;;;;4.70;0.77;;;14.80;64.40;;;;;;4902515;29;20063;-64
2022/07/17 06:20:18;;;;;;;2.78;0.60;;;14.80;64.50;;;;;;4888239;29;20057;-63
2022/07/17 06:22:45;;;;;;;2.17;0.60;;;14.90;64.60;;;;;;4889933;29;20053;-65
2022/07/17 06:25:13;;;;;;;2.00;0.50;;;14.90;64.70;;;;;;4889627;29;20048;-65
2022/07/17 06:27:41;;;;;;;2.72;0.77;;;14.90;64.80;;;;;;4886591;29;20043;-68
2022/07/17 06:30:09;;;;;;;2.00;0.50;;;15.00;64.80;;;;;;4888091;29;20059;-65
2022/07/17 06:32:38;;;;;;;2.25;0.63;;;15.10;64.40;;;;;;4894054;29;20063;-62
2022/07/17 06:35:06;;;;;;;2.83;0.63;;;15.20;64.40;;;;;;4891994;29;20060;-65
2022/07/17 06:37:33;;;;;;;2.05;0.55;;;15.30;64.60;;;;;;4900288;29;20079;-65
2022/07/17 06:39:59;;;;;;;2.38;0.60;;;15.40;64.50;;;;;;4887924;29;20050;-65
2022/07/17 06:42:26;;;;;;;1.52;0.60;;;15.50;64.50;;;;;;4903663;29;20048;-66
2022/07/17 06:44:53;;;;;;;1.58;0.80;;;15.60;64.10;;;;;;4901467;29;20048;-65
2022/07/17 06:47:20;;;;;;;2.28;0.73;;;15.80;63.70;;;;;;4882573;29;20460;-64
2022/07/17 06:49:48;;;;;;;3.72;0.77;;;15.90;63.30;;;;;;4894819;29;20449;-65
2022/07/17 06:52:15;;;;;;;3.00;0.57;;;16.10;63.20;;;;;;4890703;29;20064;-64
2022/07/17 06:54:42;;;;;;;1.45;0.55;;;16.20;63.50;;;;;;4888060;29;20406;-63
2022/07/17 06:57:09;;;;;;;3.85;1.00;;;16.40;63.20;;;;;;4890465;29;20049;-63
2022/07/17 06:59:36;;;;;;;2.00;0.45;;;16.50;63.00;;;;;;4898079;29;20060;-65
2022/07/17 07:02:04;;;;;;;2.95;0.73;;;16.70;62.80;;;;;;4888489;29;20064;-64
2022/07/17 07:04:31;;;;;;;2.47;0.70;;;16.90;62.40;;;;;;4893243;29;20100;-64
2022/07/17 07:06:59;;;;;;;3.03;0.60;;;17.10;62.20;;;;;;4889539;29;20053;-63
2022/07/17 07:09:26;;;;;;;2.55;0.80;;;17.20;61.80;;;;;;4897920;29;20048;-63
2022/07/17 07:11:53;;;;;;;2.45;0.70;;;17.40;61.40;;;;;;4901958;29;20414;-65
2022/07/17 07:14:20;;;;;;;3.47;0.52;;;17.50;61.20;;;;;;4902639;29;20060;-62
2022/07/17 07:16:47;;;;;;;2.33;0.70;;;17.70;60.70;;;;;;4891923;29;20052;-64
2022/07/17 07:19:14;;;;;;;2.80;0.60;;;17.80;60.80;;;;;;4890194;29;20043;-62
2022/07/17 07:21:41;;;;;;;2.58;0.60;;;18.10;59.90;;;;;;4886329;29;20052;-67
2022/07/17 07:24:09;;;;;;;2.63;0.60;;;18.20;59.80;;;;;;4888771;29;20048;-65
2022/07/17 07:26:36;;;;;;;3.63;0.93;;;18.30;58.90;;;;;;4887370;29;20056;-64
2022/07/17 07:29:03;;;;;;;1.83;0.50;;;18.40;58.70;;;;;;4893168;29;20159;-64
2022/07/17 07:31:30;;;;;;;1.55;0.90;;;18.60;58.00;;;;;;4892040;29;20420;-65
2022/07/17 07:33:57;;;;;;;3.17;0.50;;;18.80;57.90;;;;;;4896658;29;20491;-63
2022/07/17 07:36:24;;;;;;;3.47;0.70;;;19.00;56.40;;;;;;4899051;29;20056;-65
2022/07/17 07:38:51;;;;;;;4.03;0.82;;;19.00;56.90;;;;;;4875444;29;20141;-64
2022/07/17 07:41:19;;;;;;;3.22;0.70;;;19.10;55.80;;;;;;4882996;29;20060;-64
2022/07/17 07:43:46;;;;;;;2.10;0.73;;;19.20;54.90;;;;;;4885704;29;20139;-64
2022/07/17 07:46:13;;;;;;;4.40;0.90;;;19.40;55.10;;;;;;4886336;29;20075;-64
2022/07/17 07:48:40;;;;;;;3.97;1.08;;;19.60;54.60;;;;;;4887176;29;20052;-64
2022/07/17 07:51:08;;;;;;;4.03;0.70;;;19.70;53.90;;;;;;4886449;29;20045;-64
2022/07/17 07:53:35;;;;;;;1.05;0.52;;;19.90;53.20;;;;;;4884680;29;20058;-63
2022/07/17 07:56:02;;;;;;;1.05;0.47;;;20.10;53.40;;;;;;4888180;29;20063;-65
2022/07/17 07:58:30;;;;;;;1.65;0.68;;;20.30;53.30;;;;;;4885973;29;20067;-63
2022/07/17 08:00:57;;;;;;;4.28;1.15;;;20.50;53.10;;;;;;4888338;29;20049;-75
2022/07/17 08:03:24;;;;;;;2.10;0.90;;;20.70;52.90;;;;;;4876481;29;20148;-75
2022/07/17 08:05:51;;;;;;;4.65;1.15;;;20.80;52.20;;;;;;4894150;29;20044;-75
2022/07/17 08:08:18;;;;;;;3.95;1.23;;;21.00;52.50;;;;;;4890172;29;20048;-74
2022/07/17 08:10:44;;;;;;;2.97;1.05;;;21.10;51.80;;;;;;4877181;29;21040;-72
2022/07/17 08:13:11;;;;;;;4.45;1.20;;;21.20;51.40;;;;;;4881650;29;20048;-74
2022/07/17 08:15:40;;;;;;;3.17;1.17;;;21.40;50.60;;;;;;4886830;29;20056;-75
2022/07/17 08:18:07;;;;;;;4.88;1.92;;;21.60;50.80;;;;;;4887221;29;20063;-74
2022/07/17 08:20:34;;;;;;;3.17;1.20;;;21.60;50.50;;;;;;4884267;29;20051;-74
2022/07/17 08:23:01;;;;;;;4.70;1.55;;;21.70;50.40;;;;;;4887609;29;20052;-76
2022/07/17 08:25:28;;;;;;;3.42;1.00;;;21.80;50.20;;;;;;4884350;29;20080;-74
2022/07/17 08:27:55;;;;;;;2.30;1.02;;;22.00;49.30;;;;;;4887400;29;20048;-72
2022/07/17 08:30:22;;;;;;;4.15;1.15;;;22.10;48.10;;;;;;4888441;29;20060;-74
2022/07/17 08:32:50;;;;;;;3.53;1.15;;;22.30;48.30;;;;;;4891774;29;20061;-75
2022/07/17 08:35:17;;;;;;;6.40;2.10;;;22.40;47.80;;;;;;4892522;29;20052;-74
2022/07/17 08:37:46;;;;;;;4.93;1.52;;;22.60;47.80;;;;;;4887854;29;20047;-75
2022/07/17 08:40:17;;;;;;;2.65;1.05;;;22.60;47.60;;;;;;4888828;29;20187;-76
2022/07/17 08:42:44;;;;;;;5.25;1.40;;;22.70;47.60;;;;;;4889098;29;20056;-76
2022/07/17 08:45:11;;;;;;;4.65;1.10;;;22.80;47.30;;;;;;4890853;29;20048;-76
2022/07/17 08:47:39;;;;;;;3.00;0.80;;;22.90;46.80;;;;;;4882737;29;20059;-76
2022/07/17 08:50:08;;;;;;;3.08;1.00;;;23.10;46.30;;;;;;4886612;29;20049;-78
2022/07/17 08:52:38;;;;;;;4.05;1.42;;;23.10;46.10;;;;;;4886633;29;20059;-76
2022/07/17 08:55:08;;;;;;;2.88;1.17;;;23.20;45.30;;;;;;4887011;29;20053;-74
2022/07/17 08:57:38;;;;;;;1.77;0.80;;;23.30;45.30;;;;;;4891545;29;20056;-75
2022/07/17 09:00:06;;;;;;;1.92;0.85;;;23.40;45.30;;;;;;4889785;29;20063;-68
2022/07/17 09:02:33;;;;;;;3.38;1.90;;;23.50;44.80;;;;;;4891936;29;20048;-76
2022/07/17 09:05:00;;;;;;;2.00;0.73;;;23.60;45.00;;;;;;4891104;29;20140;-77
2022/07/17 09:07:28;;;;;;;6.28;1.20;;;23.60;44.10;;;;;;4884892;29;20497;-76
2022/07/17 09:09:55;;;;;;;4.32;1.13;;;23.80;42.80;;;;;;4886081;29;20079;-77
2022/07/17 09:12:26;;;;;;;4.90;1.70;;;23.80;42.60;;;;;;4885312;29;20358;-74
2022/07/17 09:14:53;;;;;;;3.15;1.20;;;24.00;41.70;;;;;;4886759;29;20044;-75
2022/07/17 09:17:20;;;;;;;5.28;1.58;;;24.10;41.80;;;;;;4886579;29;20060;-77
2022/07/17 09:19:47;;;;;;;2.50;1.10;;;24.10;41.80;;;;;;4885179;29;20049;-76
2022/07/17 09:22:16;;;;;;;3.58;1.25;;;24.20;41.10;;;;;;4885502;29;20159;-76
2022/07/17 09:24:48;;;;;;;1.75;0.90;;;24.30;41.30;;;;;;4884997;29;20052;-76
2022/07/17 09:27:28;;;;;;;3.42;1.38;;;24.50;41.10;;;;;;4893171;29;23521;-73
2022/07/17 09:29:57;;;;;;;3.70;0.85;;;24.60;40.40;;;;;;4881208;29;20077;-74
2022/07/17 09:32:26;;;;;;;2.08;0.90;;;24.70;39.80;;;;;;4891459;29;20461;-75
2022/07/17 09:34:54;;;;;;;2.50;0.60;;;24.80;39.60;;;;;;4885011;29;20049;-75
2022/07/17 09:37:23;;;;;;;2.40;0.70;;;24.90;38.90;;;;;;4874056;29;20063;-76
2022/07/17 09:39:53;;;;;;;5.10;0.95;;;24.90;39.20;;;;;;4877725;29;20469;-75
2022/07/17 09:42:27;;;;;;;4.35;1.05;;;25.00;39.10;;;;;;4884678;29;20076;-76
2022/07/17 09:44:58;;;;;;;5.63;0.90;;;25.10;38.70;;;;;;4884788;29;20051;-75
2022/07/17 09:47:26;;;;;;;1.83;0.63;;;25.20;38.30;;;;;;4875349;29;20048;-74
2022/07/17 09:49:54;;;;;;;4.22;0.80;;;25.30;38.00;;;;;;4886611;29;20072;-77
2022/07/17 09:52:23;;;;;;;1.00;0.43;;;25.30;38.20;;;;;;4886882;29;20055;-76
2022/07/17 09:54:53;;;;;;;0.30;0.30;;;25.40;38.10;;;;;;4890294;29;20048;-76
2022/07/17 09:57:21;;;;;;;3.42;0.65;;;25.50;37.50;;;;;;4885340;29;20580;-74
2022/07/17 09:59:50;;;;;;;2.35;0.57;;;25.50;37.10;;;;;;4890307;29;20736;-75
2022/07/17 10:02:17;;;;;;;3.57;0.57;;;25.60;37.50;;;;;;4889742;29;20151;-75
2022/07/17 10:04:45;;;;;;;2.08;0.63;;;25.70;37.40;;;;;;4885371;29;21528;-75
2022/07/17 10:07:13;;;;;;;2.65;0.80;;;25.80;37.20;;;;;;4890902;29;20057;-76
2022/07/17 10:09:40;;;;;;;2.22;0.70;;;25.80;37.10;;;;;;4880402;29;20053;-75
2022/07/17 10:12:09;;;;;;;2.38;0.95;;;25.90;37.10;;;;;;4886130;29;20045;-76
2022/07/17 10:14:38;;;;;;;2.47;0.82;;;26.00;36.70;;;;;;4885258;29;20045;-77
2022/07/17 10:17:09;;;;;;;4.47;0.77;;;26.10;36.80;;;;;;4870305;29;20470;-76
2022/07/17 10:19:47;;;;;;;2.70;0.70;;;26.10;37.00;;;;;;4884292;29;20136;-75
2022/07/17 10:22:14;;;;;;;1.55;0.50;;;26.20;36.70;;;;;;4876011;29;20068;-76
2022/07/17 10:24:49;;;;;;;1.38;0.50;;;26.20;36.50;;;;;;4887415;29;20140;-76
2022/07/17 10:27:26;;;;;;;3.22;0.50;;;26.40;36.00;;;;;;4892884;29;20104;-75
2022/07/17 10:30:01;;;;;;;2.45;0.50;;;26.50;34.80;;;;;;4884387;29;20051;-77
2022/07/17 10:32:29;;;;;;;4.25;0.60;;;26.50;34.60;;;;;;4899558;29;20047;-76
2022/07/17 10:35:00;;;;;;;3.20;1.00;;;26.60;35.20;;;;;;4882873;29;20048;-76
2022/07/17 10:37:32;;;;;;;1.92;0.60;;;26.60;34.60;;;;;;4890119;29;20084;-75
2022/07/17 10:40:06;;;;;;;1.45;0.40;;;26.60;33.90;;;;;;4879785;29;20065;-76
2022/07/17 10:42:58;;;;;;;1.45;0.50;;;26.70;33.30;;;;;;4886044;29;20159;-76
2022/07/17 10:45:29;;;;;;;1.48;0.57;;;26.80;33.40;;;;;;4881016;29;20072;-76
2022/07/17 10:47:58;;;;;;;6.38;0.60;;;26.90;33.30;;;;;;4865513;29;20052;-75
2022/07/17 10:50:28;;;;;;;2.28;0.52;;;26.90;33.70;;;;;;4866603;29;20052;-77
2022/07/17 10:53:00;;;;;;;2.28;0.93;;;27.00;33.50;;;;;;4884116;29;20064;-75
2022/07/17 10:55:28;;;;;;;0.60;0.30;;;27.00;33.60;;;;;;4886570;29;20051;-74
2022/07/17 10:57:57;;;;;;;3.97;0.75;;;27.10;33.60;;;;;;4886269;29;20406;-75
2022/07/17 11:00:25;;;;;;;2.35;0.55;;;27.10;33.60;;;;;;4883963;29;20786;-76
2022/07/17 11:02:52;;;;;;;0.52;0.22;;;27.20;33.70;;;;;;4888277;29;20135;-76
2022/07/17 11:05:19;;;;;;;0.40;0.30;;;27.30;33.60;;;;;;4871820;29;20056;-76
2022/07/17 11:07:54;;;;;;;0.85;0.40;;;27.30;33.30;;;;;;4884352;29;20047;-76
2022/07/17 11:10:22;;;;;;;0.68;0.32;;;27.40;32.90;;;;;;4884116;29;20252;-76
2022/07/17 11:12:49;;;;;;;2.10;0.40;;;27.50;33.20;;;;;;4876054;29;20057;-74
2022/07/17 11:15:18;;;;;;;1.15;0.40;;;27.60;32.70;;;;;;4870353;29;20092;-75
2022/07/17 11:17:46;;;;;;;2.70;0.40;;;27.60;32.30;;;;;;4880907;29;20096;-73
2022/07/17 11:20:15;;;;;;;0.85;0.30;;;27.60;32.40;;;;;;4897632;29;20044;-75
2022/07/17 11:22:42;;;;;;;0.43;0.30;;;27.60;32.80;;;;;;4884273;29;20144;-75
2022/07/17 11:25:11;;;;;;;0.88;0.30;;;27.70;32.80;;;;;;4885674;29;20695;-77
2022/07/17 11:27:39;;;;;;;1.23;0.40;;;27.70;32.20;;;;;;4884882;29;20042;-77
2022/07/17 11:30:13;;;;;;;2.55;0.70;;;27.80;32.20;;;;;;4886115;29;20049;-72
2022/07/17 11:32:42;;;;;;;1.60;0.70;;;27.80;32.50;;;;;;4882538;29;20135;-74
2022/07/17 11:35:16;;;;;;;2.25;0.85;;;27.80;32.60;;;;;;4896107;29;20072;-75
2022/07/17 11:37:44;;;;;;;2.78;0.95;;;28.00;32.40;;;;;;4889209;29;20053;-77
2022/07/17 11:40:11;;;;;;;3.67;0.93;;;28.00;31.20;;;;;;4887135;29;20064;-75
2022/07/17 11:42:38;;;;;;;3.97;1.10;;;28.10;31.40;;;;;;4887468;29;20168;-74
2022/07/17 11:45:06;;;;;;;2.90;0.70;;;28.10;31.20;;;;;;4882823;29;20053;-76
2022/07/17 11:47:33;;;;;;;4.33;0.90;;;28.10;30.80;;;;;;4873778;29;20236;-74
2022/07/17 11:50:11;;;;;;;5.38;1.08;;;28.00;30.50;;;;;;4885225;29;20453;-77
2022/07/17 11:52:42;;;;;;;7.28;0.90;;;28.10;30.80;;;;;;4887400;29;20060;-78
2022/07/17 11:55:10;;;;;;;6.65;1.00;;;28.00;31.60;;;;;;4888414;29;20055;-76
2022/07/17 11:57:44;;;;;;;4.63;1.30;;;28.00;31.50;;;;;;4884215;29;20068;-75
2022/07/17 12:00:13;;;;;;;5.68;1.77;;;28.10;31.30;;;;;;4881045;29;20061;-79
2022/07/17 12:02:40;;;;;;;5.40;1.50;;;28.20;31.10;;;;;;4893590;29;20114;-73
2022/07/17 12:05:09;;;;;;;6.05;1.67;;;28.20;30.30;;;;;;4879638;29;20059;-77
2022/07/17 12:07:44;;;;;;;9.05;1.88;;;28.30;30.70;;;;;;4886338;29;20049;-77
2022/07/17 12:10:19;;;;;;;5.97;1.30;;;28.30;30.40;;;;;;4883735;29;20056;-75
2022/07/17 12:12:54;;;;;;;2.88;1.30;;;28.20;30.20;;;;;;4888472;29;20139;-77
2022/07/17 12:15:22;;;;;;;7.70;1.50;;;28.20;30.60;;;;;;4881429;29;20052;-79
2022/07/17 12:17:49;;;;;;;5.82;1.23;;;28.20;30.50;;;;;;4882367;29;20555;-77
2022/07/17 12:20:17;;;;;;;1.55;0.77;;;28.20;30.10;;;;;;4881421;29;20057;-78
2022/07/17 12:22:46;;;;;;;2.60;0.90;;;28.30;30.20;;;;;;4887380;29;20049;-77
2022/07/17 12:25:23;;;;;;;7.03;1.77;;;28.30;30.20;;;;;;4893110;29;20048;-80
2022/07/17 12:27:50;;;;;;;9.20;1.20;;;28.30;30.50;;;;;;4890371;29;20137;-75
2022/07/17 12:30:18;;;;;;;4.82;1.45;;;28.40;30.10;;;;;;4894778;29;20055;-76
2022/07/17 12:32:45;;;;;;;7.80;1.85;;;28.40;29.50;;;;;;4888932;29;20071;-76
2022/07/17 12:35:11;;;;;;;6.00;1.10;;;28.40;30.10;;;;;;4896562;29;20148;-80
2022/07/17 12:37:40;;;;;;;6.55;1.50;;;28.40;29.30;;;;;;4898867;29;20048;-79
2022/07/17 12:40:08;;;;;;;5.15;1.30;;;28.30;29.20;;;;;;4903727;29;20131;-79
2022/07/17 12:42:35;;;;;;;3.03;1.15;;;28.40;29.60;;;;;;4893530;29;20050;-75
2022/07/17 12:45:02;;;;;;;4.50;1.10;;;28.40;29.10;;;;;;4902009;29;20060;-75
2022/07/17 12:47:30;;;;;;;4.38;1.15;;;28.50;29.10;;;;;;4894891;29;20049;-78
2022/07/17 12:49:56;;;;;;;3.58;0.88;;;28.40;30.00;;;;;;4891078;29;20085;-74